sensor_id;sensor_type;location;lat;lon;timestamp;P1;durP1;ratioP1;P2;durP2;ratioP2
47009;SDS011;59230;54.164;-3.124;2023-05-07T00:01:33;13.27;;;8.35;;
47009;SDS011;59230;54.164;-3.124;2023-05-07T00:04:00;10.80;;;7.25;;
47009;SDS011;59230;54.164;-3.124;2023-05-07T00:06:25;10.48;;;6.00;;
47009;SDS011;59230;54.164;-3.124;2023-05-07T00:08:55;15.18;;;7.18;;
47009;SDS011;59230;54.164;-3.124;2023-05-07T00:11:23;12.45;;;6.22;;
47009;SDS011;59230;54.164;-3.124;2023-05-07T00:13:51;15.77;;;6.40;;
47009;SDS011;59230;54.164;-3.124;2023-05-07T00:16:16;13.30;;;6.57;;
47009;SDS011;59230;54.164;-3.124;2023-05-07T00:18:46;10.05;;;5.72;;
47009;SDS011;59230;54.164;-3.124;2023-05-07T00:21:12;11.57;;;6.05;;
47009;SDS011;59230;54.164;-3.124;2023-05-07T00:23:37;9.55;;;6.47;;
47009;SDS011;59230;54.164;-3.124;2023-05-07T00:26:06;13.02;;;6.72;;
47009;SDS011;59230;54.164;-3.124;2023-05-07T00:28:32;13.75;;;7.30;;
47009;SDS011;59230;54.164;-3.124;2023-05-07T00:31:00;14.20;;;7.28;;
47009;SDS011;59230;54.164;-3.124;2023-05-07T00:33:27;13.70;;;7.63;;
47009;SDS011;59230;54.164;-3.124;2023-05-07T00:35:53;15.63;;;7.63;;
47009;SDS011;59230;54.164;-3.124;2023-05-07T00:38:24;13.55;;;6.85;;
47009;SDS011;59230;54.164;-3.124;2023-05-07T00:40:50;13.30;;;6.70;;
47009;SDS011;59230;54.164;-3.124;2023-05-07T00:43:16;14.13;;;7.10;;
47009;SDS011;59230;54.164;-3.124;2023-05-07T00:45:43;14.93;;;6.53;;
47009;SDS011;59230;54.164;-3.124;2023-05-07T00:48:10;12.38;;;6.28;;
47009;SDS011;59230;54.164;-3.124;2023-05-07T00:50:36;16.17;;;6.82;;
47009;SDS011;59230;54.164;-3.124;2023-05-07T00:53:05;11.73;;;6.63;;
47009;SDS011;59230;54.164;-3.124;2023-05-07T00:55:33;10.70;;;6.05;;
47009;SDS011;59230;54.164;-3.124;2023-05-07T00:57:58;11.57;;;5.97;;
47009;SDS011;59230;54.164;-3.124;2023-05-07T01:00:25;13.30;;;6.65;;
47009;SDS011;59230;54.164;-3.124;2023-05-07T01:02:54;11.50;;;6.63;;
47009;SDS011;59230;54.164;-3.124;2023-05-07T01:05:20;11.52;;;6.18;;
47009;SDS011;59230;54.164;-3.124;2023-05-07T01:07:50;10.93;;;6.38;;
47009;SDS011;59230;54.164;-3.124;2023-05-07T01:10:18;9.85;;;5.20;;
47009;SDS011;59230;54.164;-3.124;2023-05-07T01:12:45;14.25;;;6.07;;
47009;SDS011;59230;54.164;-3.124;2023-05-07T01:15:13;11.48;;;5.90;;
47009;SDS011;59230;54.164;-3.124;2023-05-07T01:17:40;9.63;;;5.75;;
47009;SDS011;59230;54.164;-3.124;2023-05-07T01:20:08;12.02;;;6.32;;
47009;SDS011;59230;54.164;-3.124;2023-05-07T01:22:38;11.47;;;6.47;;
47009;SDS011;59230;54.164;-3.124;2023-05-07T01:25:06;12.52;;;6.60;;
47009;SDS011;59230;54.164;-3.124;2023-05-07T01:27:34;15.95;;;6.85;;
47009;SDS011;59230;54.164;-3.124;2023-05-07T01:30:02;15.63;;;6.82;;
47009;SDS011;59230;54.164;-3.124;2023-05-07T01:32:40;11.85;;;6.07;;
47009;SDS011;59230;54.164;-3.124;2023-05-07T01:35:11;11.38;;;6.30;;
47009;SDS011;59230;54.164;-3.124;2023-05-07T01:37:41;16.42;;;6.53;;
47009;SDS011;59230;54.164;-3.124;2023-05-07T01:40:09;11.15;;;6.28;;
47009;SDS011;59230;54.164;-3.124;2023-05-07T01:42:35;12.45;;;6.13;;
47009;SDS011;59230;54.164;-3.124;2023-05-07T01:45:02;14.52;;;6.45;;
47009;SDS011;59230;54.164;-3.124;2023-05-07T01:47:27;12.05;;;7.35;;
47009;SDS011;59230;54.164;-3.124;2023-05-07T01:49:55;9.30;;;5.65;;
47009;SDS011;59230;54.164;-3.124;2023-05-07T01:52:21;9.23;;;6.32;;
47009;SDS011;59230;54.164;-3.124;2023-05-07T01:54:47;12.10;;;7.35;;
47009;SDS011;59230;54.164;-3.124;2023-05-07T01:57:12;9.48;;;5.80;;
47009;SDS011;59230;54.164;-3.124;2023-05-07T01:59:37;11.98;;;6.07;;
47009;SDS011;59230;54.164;-3.124;2023-05-07T02:02:03;8.15;;;5.70;;
47009;SDS011;59230;54.164;-3.124;2023-05-07T02:04:30;9.82;;;5.95;;
47009;SDS011;59230;54.164;-3.124;2023-05-07T02:06:57;8.68;;;5.55;;
47009;SDS011;59230;54.164;-3.124;2023-05-07T02:09:24;11.98;;;6.35;;
47009;SDS011;59230;54.164;-3.124;2023-05-07T02:11:51;16.65;;;7.40;;
47009;SDS011;59230;54.164;-3.124;2023-05-07T02:14:17;12.48;;;6.88;;
47009;SDS011;59230;54.164;-3.124;2023-05-07T02:16:44;15.82;;;7.97;;
47009;SDS011;59230;54.164;-3.124;2023-05-07T02:19:11;18.50;;;8.32;;
47009;SDS011;59230;54.164;-3.124;2023-05-07T02:21:37;9.60;;;6.15;;
47009;SDS011;59230;54.164;-3.124;2023-05-07T02:24:03;13.68;;;7.45;;
47009;SDS011;59230;54.164;-3.124;2023-05-07T02:26:28;11.35;;;7.35;;
47009;SDS011;59230;54.164;-3.124;2023-05-07T02:28:54;13.32;;;7.40;;
47009;SDS011;59230;54.164;-3.124;2023-05-07T02:31:21;11.60;;;7.13;;
47009;SDS011;59230;54.164;-3.124;2023-05-07T02:33:49;10.18;;;6.32;;
47009;SDS011;59230;54.164;-3.124;2023-05-07T02:36:16;10.10;;;6.82;;
47009;SDS011;59230;54.164;-3.124;2023-05-07T02:38:42;13.25;;;8.13;;
47009;SDS011;59230;54.164;-3.124;2023-05-07T02:41:11;18.83;;;9.63;;
47009;SDS011;59230;54.164;-3.124;2023-05-07T02:43:39;13.57;;;8.18;;
47009;SDS011;59230;54.164;-3.124;2023-05-07T02:46:07;16.83;;;8.10;;
47009;SDS011;59230;54.164;-3.124;2023-05-07T02:48:36;16.27;;;7.20;;
47009;SDS011;59230;54.164;-3.124;2023-05-07T02:51:06;10.57;;;7.38;;
47009;SDS011;59230;54.164;-3.124;2023-05-07T02:53:32;17.38;;;9.07;;
47009;SDS011;59230;54.164;-3.124;2023-05-07T02:55:58;14.50;;;8.73;;
47009;SDS011;59230;54.164;-3.124;2023-05-07T02:58:24;20.33;;;10.25;;
47009;SDS011;59230;54.164;-3.124;2023-05-07T03:00:52;13.27;;;8.52;;
47009;SDS011;59230;54.164;-3.124;2023-05-07T03:03:20;15.80;;;8.95;;
47009;SDS011;59230;54.164;-3.124;2023-05-07T03:05:47;15.18;;;9.32;;
47009;SDS011;59230;54.164;-3.124;2023-05-07T03:08:13;17.25;;;11.05;;
47009;SDS011;59230;54.164;-3.124;2023-05-07T03:10:40;16.17;;;9.73;;
47009;SDS011;59230;54.164;-3.124;2023-05-07T03:13:06;17.60;;;11.55;;
47009;SDS011;59230;54.164;-3.124;2023-05-07T03:15:33;14.15;;;10.10;;
47009;SDS011;59230;54.164;-3.124;2023-05-07T03:18:00;16.38;;;12.30;;
47009;SDS011;59230;54.164;-3.124;2023-05-07T03:20:27;15.50;;;10.98;;
47009;SDS011;59230;54.164;-3.124;2023-05-07T03:22:54;19.40;;;12.50;;
47009;SDS011;59230;54.164;-3.124;2023-05-07T03:25:19;23.45;;;14.43;;
47009;SDS011;59230;54.164;-3.124;2023-05-07T03:27:45;18.70;;;11.73;;
47009;SDS011;59230;54.164;-3.124;2023-05-07T03:30:12;17.73;;;11.52;;
47009;SDS011;59230;54.164;-3.124;2023-05-07T03:32:38;16.52;;;11.02;;
47009;SDS011;59230;54.164;-3.124;2023-05-07T03:35:04;14.38;;;9.38;;
47009;SDS011;59230;54.164;-3.124;2023-05-07T03:37:30;13.68;;;9.82;;
47009;SDS011;59230;54.164;-3.124;2023-05-07T03:39:56;17.38;;;11.32;;
47009;SDS011;59230;54.164;-3.124;2023-05-07T03:42:24;16.88;;;11.05;;
47009;SDS011;59230;54.164;-3.124;2023-05-07T03:44:50;17.00;;;9.38;;
47009;SDS011;59230;54.164;-3.124;2023-05-07T03:47:17;20.63;;;11.40;;
47009;SDS011;59230;54.164;-3.124;2023-05-07T03:49:42;14.90;;;9.32;;
47009;SDS011;59230;54.164;-3.124;2023-05-07T03:52:08;12.85;;;9.13;;
47009;SDS011;59230;54.164;-3.124;2023-05-07T03:54:35;16.65;;;10.10;;
47009;SDS011;59230;54.164;-3.124;2023-05-07T03:57:00;16.23;;;9.45;;
47009;SDS011;59230;54.164;-3.124;2023-05-07T03:59:26;16.08;;;10.20;;
47009;SDS011;59230;54.164;-3.124;2023-05-07T04:01:54;13.95;;;9.90;;
47009;SDS011;59230;54.164;-3.124;2023-05-07T04:04:19;17.70;;;10.63;;
47009;SDS011;59230;54.164;-3.124;2023-05-07T04:06:46;21.25;;;12.45;;
47009;SDS011;59230;54.164;-3.124;2023-05-07T04:09:12;16.38;;;9.73;;
47009;SDS011;59230;54.164;-3.124;2023-05-07T04:11:39;19.73;;;11.02;;
47009;SDS011;59230;54.164;-3.124;2023-05-07T04:14:06;18.38;;;10.05;;
47009;SDS011;59230;54.164;-3.124;2023-05-07T04:16:32;19.38;;;11.57;;
47009;SDS011;59230;54.164;-3.124;2023-05-07T04:19:01;16.52;;;10.38;;
47009;SDS011;59230;54.164;-3.124;2023-05-07T04:21:26;14.65;;;9.55;;
47009;SDS011;59230;54.164;-3.124;2023-05-07T04:23:55;18.50;;;11.38;;
47009;SDS011;59230;54.164;-3.124;2023-05-07T04:26:22;19.83;;;11.27;;
47009;SDS011;59230;54.164;-3.124;2023-05-07T04:28:49;12.77;;;9.50;;
47009;SDS011;59230;54.164;-3.124;2023-05-07T04:31:16;12.80;;;9.20;;
47009;SDS011;59230;54.164;-3.124;2023-05-07T04:33:41;251.98;;;14.15;;
47009;SDS011;59230;54.164;-3.124;2023-05-07T04:36:08;126.07;;;11.85;;
47009;SDS011;59230;54.164;-3.124;2023-05-07T04:38:36;159.32;;;14.07;;
47009;SDS011;59230;54.164;-3.124;2023-05-07T04:41:03;36.53;;;11.90;;
47009;SDS011;59230;54.164;-3.124;2023-05-07T04:43:32;108.72;;;16.27;;
47009;SDS011;59230;54.164;-3.124;2023-05-07T04:45:57;39.05;;;11.60;;
47009;SDS011;59230;54.164;-3.124;2023-05-07T04:48:24;24.13;;;10.20;;
47009;SDS011;59230;54.164;-3.124;2023-05-07T04:50:50;23.90;;;8.32;;
47009;SDS011;59230;54.164;-3.124;2023-05-07T04:53:18;74.80;;;10.60;;
47009;SDS011;59230;54.164;-3.124;2023-05-07T04:55:46;311.17;;;18.05;;
47009;SDS011;59230;54.164;-3.124;2023-05-07T04:58:13;62.90;;;8.50;;
47009;SDS011;59230;54.164;-3.124;2023-05-07T05:00:39;92.35;;;9.52;;
47009;SDS011;59230;54.164;-3.124;2023-05-07T05:03:07;609.55;;;23.08;;
47009;SDS011;59230;54.164;-3.124;2023-05-07T05:05:34;69.20;;;7.13;;
47009;SDS011;59230;54.164;-3.124;2023-05-07T05:08:00;39.78;;;8.23;;
47009;SDS011;59230;54.164;-3.124;2023-05-07T05:10:25;61.78;;;8.27;;
47009;SDS011;59230;54.164;-3.124;2023-05-07T05:12:52;28.67;;;7.45;;
47009;SDS011;59230;54.164;-3.124;2023-05-07T05:15:18;21.30;;;7.50;;
47009;SDS011;59230;54.164;-3.124;2023-05-07T05:17:43;29.20;;;7.65;;
47009;SDS011;59230;54.164;-3.124;2023-05-07T05:20:11;17.60;;;7.47;;
47009;SDS011;59230;54.164;-3.124;2023-05-07T05:22:37;24.25;;;8.77;;
47009;SDS011;59230;54.164;-3.124;2023-05-07T05:25:06;20.05;;;9.15;;
47009;SDS011;59230;54.164;-3.124;2023-05-07T05:27:32;12.60;;;7.85;;
47009;SDS011;59230;54.164;-3.124;2023-05-07T05:29:59;13.70;;;8.43;;
47009;SDS011;59230;54.164;-3.124;2023-05-07T05:32:24;13.43;;;8.70;;
47009;SDS011;59230;54.164;-3.124;2023-05-07T05:34:52;14.65;;;8.70;;
47009;SDS011;59230;54.164;-3.124;2023-05-07T05:37:21;22.20;;;10.68;;
47009;SDS011;59230;54.164;-3.124;2023-05-07T05:39:51;13.63;;;9.45;;
47009;SDS011;59230;54.164;-3.124;2023-05-07T05:42:20;14.40;;;9.13;;
47009;SDS011;59230;54.164;-3.124;2023-05-07T05:44:50;27.88;;;11.23;;
47009;SDS011;59230;54.164;-3.124;2023-05-07T05:47:15;22.02;;;11.15;;
47009;SDS011;59230;54.164;-3.124;2023-05-07T05:49:44;32.67;;;14.73;;
47009;SDS011;59230;54.164;-3.124;2023-05-07T05:52:12;41.17;;;17.95;;
47009;SDS011;59230;54.164;-3.124;2023-05-07T05:54:42;33.25;;;14.98;;
47009;SDS011;59230;54.164;-3.124;2023-05-07T05:57:10;42.28;;;16.90;;
47009;SDS011;59230;54.164;-3.124;2023-05-07T05:59:35;39.67;;;17.48;;
47009;SDS011;59230;54.164;-3.124;2023-05-07T06:02:03;31.40;;;14.48;;
47009;SDS011;59230;54.164;-3.124;2023-05-07T06:04:28;29.30;;;14.52;;
47009;SDS011;59230;54.164;-3.124;2023-05-07T06:06:55;38.78;;;17.50;;
47009;SDS011;59230;54.164;-3.124;2023-05-07T06:09:23;51.30;;;21.35;;
47009;SDS011;59230;54.164;-3.124;2023-05-07T06:11:49;58.92;;;23.45;;
47009;SDS011;59230;54.164;-3.124;2023-05-07T06:14:16;56.13;;;21.38;;
47009;SDS011;59230;54.164;-3.124;2023-05-07T06:16:44;76.95;;;25.80;;
47009;SDS011;59230;54.164;-3.124;2023-05-07T06:19:10;69.22;;;26.98;;
47009;SDS011;59230;54.164;-3.124;2023-05-07T06:21:40;78.47;;;28.63;;
47009;SDS011;59230;54.164;-3.124;2023-05-07T06:24:07;69.70;;;27.95;;
47009;SDS011;59230;54.164;-3.124;2023-05-07T06:26:34;62.28;;;27.42;;
47009;SDS011;59230;54.164;-3.124;2023-05-07T06:29:02;73.30;;;28.33;;
47009;SDS011;59230;54.164;-3.124;2023-05-07T06:31:32;74.20;;;30.80;;
47009;SDS011;59230;54.164;-3.124;2023-05-07T06:34:00;81.30;;;34.40;;
47009;SDS011;59230;54.164;-3.124;2023-05-07T06:36:27;84.55;;;35.40;;
47009;SDS011;59230;54.164;-3.124;2023-05-07T06:38:54;88.18;;;34.70;;
47009;SDS011;59230;54.164;-3.124;2023-05-07T06:41:21;98.63;;;39.22;;
47009;SDS011;59230;54.164;-3.124;2023-05-07T06:43:49;90.43;;;34.67;;
47009;SDS011;59230;54.164;-3.124;2023-05-07T06:46:15;74.22;;;31.80;;
47009;SDS011;59230;54.164;-3.124;2023-05-07T06:48:41;88.10;;;31.48;;
47009;SDS011;59230;54.164;-3.124;2023-05-07T06:51:07;102.15;;;35.58;;
47009;SDS011;59230;54.164;-3.124;2023-05-07T06:53:33;80.38;;;33.53;;
47009;SDS011;59230;54.164;-3.124;2023-05-07T06:56:01;76.53;;;32.50;;
47009;SDS011;59230;54.164;-3.124;2023-05-07T06:58:28;63.28;;;29.95;;
47009;SDS011;59230;54.164;-3.124;2023-05-07T07:00:53;60.88;;;28.90;;
47009;SDS011;59230;54.164;-3.124;2023-05-07T07:03:20;66.45;;;27.95;;
47009;SDS011;59230;54.164;-3.124;2023-05-07T07:05:50;58.17;;;27.80;;
47009;SDS011;59230;54.164;-3.124;2023-05-07T07:08:20;62.38;;;28.25;;
47009;SDS011;59230;54.164;-3.124;2023-05-07T07:10:48;67.82;;;28.90;;
47009;SDS011;59230;54.164;-3.124;2023-05-07T07:13:16;63.67;;;26.98;;
47009;SDS011;59230;54.164;-3.124;2023-05-07T07:15:43;53.53;;;25.13;;
47009;SDS011;59230;54.164;-3.124;2023-05-07T07:18:10;63.17;;;25.98;;
47009;SDS011;59230;54.164;-3.124;2023-05-07T07:20:35;59.53;;;25.38;;
47009;SDS011;59230;54.164;-3.124;2023-05-07T07:23:01;61.78;;;26.15;;
47009;SDS011;59230;54.164;-3.124;2023-05-07T07:25:26;65.40;;;26.38;;
47009;SDS011;59230;54.164;-3.124;2023-05-07T07:27:53;65.18;;;24.15;;
47009;SDS011;59230;54.164;-3.124;2023-05-07T07:30:19;60.38;;;23.05;;
47009;SDS011;59230;54.164;-3.124;2023-05-07T07:32:48;59.22;;;22.45;;
47009;SDS011;59230;54.164;-3.124;2023-05-07T07:35:15;46.72;;;20.33;;
47009;SDS011;59230;54.164;-3.124;2023-05-07T07:37:43;42.78;;;20.20;;
47009;SDS011;59230;54.164;-3.124;2023-05-07T07:40:11;48.40;;;19.95;;
47009;SDS011;59230;54.164;-3.124;2023-05-07T07:42:36;52.55;;;21.65;;
47009;SDS011;59230;54.164;-3.124;2023-05-07T07:45:03;62.30;;;22.05;;
47009;SDS011;59230;54.164;-3.124;2023-05-07T07:47:35;55.15;;;21.70;;
47009;SDS011;59230;54.164;-3.124;2023-05-07T07:50:00;65.85;;;17.17;;
47009;SDS011;59230;54.164;-3.124;2023-05-07T07:52:28;35.05;;;13.98;;
47009;SDS011;59230;54.164;-3.124;2023-05-07T07:54:54;33.08;;;12.18;;
47009;SDS011;59230;54.164;-3.124;2023-05-07T07:57:20;63.70;;;9.02;;
47009;SDS011;59230;54.164;-3.124;2023-05-07T07:59:47;42.55;;;9.00;;
47009;SDS011;59230;54.164;-3.124;2023-05-07T08:02:13;21.13;;;8.38;;
47009;SDS011;59230;54.164;-3.124;2023-05-07T08:04:39;20.20;;;8.30;;
47009;SDS011;59230;54.164;-3.124;2023-05-07T08:07:09;20.02;;;7.28;;
47009;SDS011;59230;54.164;-3.124;2023-05-07T08:09:39;16.95;;;6.57;;
47009;SDS011;59230;54.164;-3.124;2023-05-07T08:12:07;15.07;;;7.60;;
47009;SDS011;59230;54.164;-3.124;2023-05-07T08:14:33;14.88;;;7.07;;
47009;SDS011;59230;54.164;-3.124;2023-05-07T08:16:59;11.82;;;5.80;;
47009;SDS011;59230;54.164;-3.124;2023-05-07T08:19:25;11.63;;;5.85;;
47009;SDS011;59230;54.164;-3.124;2023-05-07T08:21:51;12.38;;;6.32;;
47009;SDS011;59230;54.164;-3.124;2023-05-07T08:24:17;10.00;;;6.18;;
47009;SDS011;59230;54.164;-3.124;2023-05-07T08:26:44;12.38;;;6.07;;
47009;SDS011;59230;54.164;-3.124;2023-05-07T08:29:12;14.32;;;6.40;;
47009;SDS011;59230;54.164;-3.124;2023-05-07T08:31:41;17.00;;;7.90;;
47009;SDS011;59230;54.164;-3.124;2023-05-07T08:34:08;11.02;;;6.97;;
47009;SDS011;59230;54.164;-3.124;2023-05-07T08:36:34;17.00;;;8.00;;
47009;SDS011;59230;54.164;-3.124;2023-05-07T08:39:00;8.75;;;6.60;;
47009;SDS011;59230;54.164;-3.124;2023-05-07T08:41:25;15.60;;;7.78;;
47009;SDS011;59230;54.164;-3.124;2023-05-07T08:43:52;9.98;;;7.80;;
47009;SDS011;59230;54.164;-3.124;2023-05-07T08:46:24;13.00;;;8.55;;
47009;SDS011;59230;54.164;-3.124;2023-05-07T08:48:52;15.60;;;8.23;;
47009;SDS011;59230;54.164;-3.124;2023-05-07T08:51:18;13.77;;;7.78;;
47009;SDS011;59230;54.164;-3.124;2023-05-07T08:53:46;14.27;;;8.45;;
47009;SDS011;59230;54.164;-3.124;2023-05-07T08:56:18;17.25;;;8.13;;
47009;SDS011;59230;54.164;-3.124;2023-05-07T08:58:47;9.98;;;7.05;;
47009;SDS011;59230;54.164;-3.124;2023-05-07T09:01:14;14.85;;;6.13;;
47009;SDS011;59230;54.164;-3.124;2023-05-07T09:03:45;8.05;;;5.75;;
47009;SDS011;59230;54.164;-3.124;2023-05-07T09:06:14;15.68;;;5.57;;
47009;SDS011;59230;54.164;-3.124;2023-05-07T09:08:58;10.02;;;6.13;;
47009;SDS011;59230;54.164;-3.124;2023-05-07T09:11:27;12.15;;;6.03;;
47009;SDS011;59230;54.164;-3.124;2023-05-07T09:13:54;12.15;;;6.00;;
47009;SDS011;59230;54.164;-3.124;2023-05-07T09:16:21;12.18;;;5.47;;
47009;SDS011;59230;54.164;-3.124;2023-05-07T09:18:50;11.55;;;5.10;;
47009;SDS011;59230;54.164;-3.124;2023-05-07T09:21:20;8.20;;;5.15;;
47009;SDS011;59230;54.164;-3.124;2023-05-07T09:23:51;7.43;;;4.40;;
47009;SDS011;59230;54.164;-3.124;2023-05-07T09:26:20;10.77;;;5.80;;
47009;SDS011;59230;54.164;-3.124;2023-05-07T09:28:49;8.20;;;5.10;;
47009;SDS011;59230;54.164;-3.124;2023-05-07T09:31:14;10.73;;;4.82;;
47009;SDS011;59230;54.164;-3.124;2023-05-07T09:33:40;9.52;;;3.80;;
47009;SDS011;59230;54.164;-3.124;2023-05-07T09:36:06;9.93;;;4.38;;
47009;SDS011;59230;54.164;-3.124;2023-05-07T09:38:35;10.32;;;5.15;;
47009;SDS011;59230;54.164;-3.124;2023-05-07T09:41:04;9.25;;;4.32;;
47009;SDS011;59230;54.164;-3.124;2023-05-07T09:43:33;8.55;;;4.10;;
47009;SDS011;59230;54.164;-3.124;2023-05-07T09:46:05;9.40;;;4.60;;
47009;SDS011;59230;54.164;-3.124;2023-05-07T09:48:40;8.88;;;4.72;;
47009;SDS011;59230;54.164;-3.124;2023-05-07T09:53:56;7.38;;;3.40;;
47009;SDS011;59230;54.164;-3.124;2023-05-07T09:56:31;6.15;;;3.08;;
47009;SDS011;59230;54.164;-3.124;2023-05-07T09:59:01;7.45;;;3.55;;
47009;SDS011;59230;54.164;-3.124;2023-05-07T10:01:30;6.18;;;2.63;;
47009;SDS011;59230;54.164;-3.124;2023-05-07T10:04:01;4.97;;;2.35;;
47009;SDS011;59230;54.164;-3.124;2023-05-07T10:06:29;4.47;;;1.95;;
47009;SDS011;59230;54.164;-3.124;2023-05-07T10:08:55;5.05;;;2.10;;
47009;SDS011;59230;54.164;-3.124;2023-05-07T10:11:21;6.28;;;2.47;;
47009;SDS011;59230;54.164;-3.124;2023-05-07T10:13:49;3.80;;;2.10;;
47009;SDS011;59230;54.164;-3.124;2023-05-07T10:16:18;4.53;;;2.30;;
47009;SDS011;59230;54.164;-3.124;2023-05-07T10:18:46;5.28;;;1.92;;
47009;SDS011;59230;54.164;-3.124;2023-05-07T10:21:21;3.80;;;2.20;;
47009;SDS011;59230;54.164;-3.124;2023-05-07T10:23:55;4.53;;;2.10;;
47009;SDS011;59230;54.164;-3.124;2023-05-07T10:26:27;4.35;;;2.20;;
47009;SDS011;59230;54.164;-3.124;2023-05-07T10:29:07;7.68;;;2.53;;
47009;SDS011;59230;54.164;-3.124;2023-05-07T10:31:52;5.82;;;2.30;;
47009;SDS011;59230;54.164;-3.124;2023-05-07T10:34:24;5.15;;;2.10;;
47009;SDS011;59230;54.164;-3.124;2023-05-07T10:36:56;5.40;;;2.53;;
47009;SDS011;59230;54.164;-3.124;2023-05-07T10:39:25;5.15;;;2.50;;
47009;SDS011;59230;54.164;-3.124;2023-05-07T10:41:52;11.23;;;3.00;;
47009;SDS011;59230;54.164;-3.124;2023-05-07T10:44:28;7.75;;;2.83;;
47009;SDS011;59230;54.164;-3.124;2023-05-07T10:47:13;13.30;;;3.60;;
47009;SDS011;59230;54.164;-3.124;2023-05-07T10:52:15;9.27;;;3.10;;
47009;SDS011;59230;54.164;-3.124;2023-05-07T10:57:48;7.47;;;2.83;;
47009;SDS011;59230;54.164;-3.124;2023-05-07T11:05:25;14.32;;;4.05;;
47009;SDS011;59230;54.164;-3.124;2023-05-07T11:07:56;14.32;;;3.50;;
47009;SDS011;59230;54.164;-3.124;2023-05-07T11:13:16;11.13;;;3.38;;
47009;SDS011;59230;54.164;-3.124;2023-05-07T11:15:43;14.00;;;4.00;;
47009;SDS011;59230;54.164;-3.124;2023-05-07T11:18:13;11.75;;;3.67;;
47009;SDS011;59230;54.164;-3.124;2023-05-07T11:26:02;13.23;;;4.10;;
47009;SDS011;59230;54.164;-3.124;2023-05-07T11:28:29;8.82;;;3.50;;
47009;SDS011;59230;54.164;-3.124;2023-05-07T11:30:57;11.70;;;3.67;;
47009;SDS011;59230;54.164;-3.124;2023-05-07T11:33:23;15.90;;;4.45;;
47009;SDS011;59230;54.164;-3.124;2023-05-07T11:35:56;14.00;;;4.57;;
47009;SDS011;59230;54.164;-3.124;2023-05-07T11:38:25;14.77;;;4.10;;
47009;SDS011;59230;54.164;-3.124;2023-05-07T11:40:52;17.33;;;4.55;;
47009;SDS011;59230;54.164;-3.124;2023-05-07T11:43:22;18.77;;;4.00;;
47009;SDS011;59230;54.164;-3.124;2023-05-07T11:45:48;14.18;;;3.67;;
47009;SDS011;59230;54.164;-3.124;2023-05-07T11:48:22;15.40;;;4.05;;
47009;SDS011;59230;54.164;-3.124;2023-05-07T11:53:35;17.42;;;4.43;;
47009;SDS011;59230;54.164;-3.124;2023-05-07T11:58:35;16.02;;;4.10;;
47009;SDS011;59230;54.164;-3.124;2023-05-07T12:01:01;12.90;;;3.25;;
47009;SDS011;59230;54.164;-3.124;2023-05-07T12:03:28;13.73;;;3.60;;
47009;SDS011;59230;54.164;-3.124;2023-05-07T12:05:55;10.77;;;3.03;;
47009;SDS011;59230;54.164;-3.124;2023-05-07T12:08:20;15.40;;;3.65;;
47009;SDS011;59230;54.164;-3.124;2023-05-07T12:10:50;11.05;;;3.45;;
47009;SDS011;59230;54.164;-3.124;2023-05-07T12:13:21;9.10;;;3.03;;
47009;SDS011;59230;54.164;-3.124;2023-05-07T12:15:51;14.48;;;3.83;;
47009;SDS011;59230;54.164;-3.124;2023-05-07T12:18:21;14.82;;;3.95;;
47009;SDS011;59230;54.164;-3.124;2023-05-07T12:20:50;13.35;;;3.75;;
47009;SDS011;59230;54.164;-3.124;2023-05-07T12:23:17;14.57;;;3.33;;
47009;SDS011;59230;54.164;-3.124;2023-05-07T12:25:45;13.77;;;3.78;;
47009;SDS011;59230;54.164;-3.124;2023-05-07T12:28:14;13.00;;;3.92;;
47009;SDS011;59230;54.164;-3.124;2023-05-07T12:30:43;13.43;;;3.20;;
47009;SDS011;59230;54.164;-3.124;2023-05-07T12:35:48;9.82;;;3.00;;
47009;SDS011;59230;54.164;-3.124;2023-05-07T12:38:16;12.48;;;3.45;;
47009;SDS011;59230;54.164;-3.124;2023-05-07T12:40:44;14.40;;;3.53;;
47009;SDS011;59230;54.164;-3.124;2023-05-07T12:43:15;12.57;;;3.03;;
47009;SDS011;59230;54.164;-3.124;2023-05-07T12:45:54;12.75;;;3.55;;
47009;SDS011;59230;54.164;-3.124;2023-05-07T12:48:23;10.32;;;3.10;;
47009;SDS011;59230;54.164;-3.124;2023-05-07T12:50:53;12.15;;;3.50;;
47009;SDS011;59230;54.164;-3.124;2023-05-07T12:53:20;12.73;;;4.10;;
47009;SDS011;59230;54.164;-3.124;2023-05-07T12:55:52;13.88;;;3.65;;
47009;SDS011;59230;54.164;-3.124;2023-05-07T13:00:50;21.92;;;4.38;;
47009;SDS011;59230;54.164;-3.124;2023-05-07T13:03:37;11.48;;;3.47;;
47009;SDS011;59230;54.164;-3.124;2023-05-07T13:06:09;11.70;;;3.30;;
47009;SDS011;59230;54.164;-3.124;2023-05-07T13:08:42;10.75;;;2.80;;
47009;SDS011;59230;54.164;-3.124;2023-05-07T13:11:09;12.98;;;3.08;;
47009;SDS011;59230;54.164;-3.124;2023-05-07T13:13:39;10.90;;;3.33;;
47009;SDS011;59230;54.164;-3.124;2023-05-07T13:16:07;8.52;;;3.33;;
47009;SDS011;59230;54.164;-3.124;2023-05-07T13:18:37;12.70;;;2.92;;
47009;SDS011;59230;54.164;-3.124;2023-05-07T13:21:05;14.38;;;3.50;;
47009;SDS011;59230;54.164;-3.124;2023-05-07T13:23:31;15.27;;;3.70;;
47009;SDS011;59230;54.164;-3.124;2023-05-07T13:26:02;12.20;;;3.80;;
47009;SDS011;59230;54.164;-3.124;2023-05-07T13:28:29;11.18;;;3.45;;
47009;SDS011;59230;54.164;-3.124;2023-05-07T13:30:55;9.38;;;3.50;;
47009;SDS011;59230;54.164;-3.124;2023-05-07T13:33:24;12.45;;;3.35;;
47009;SDS011;59230;54.164;-3.124;2023-05-07T13:36:01;8.98;;;3.00;;
47009;SDS011;59230;54.164;-3.124;2023-05-07T13:38:30;14.93;;;3.50;;
47009;SDS011;59230;54.164;-3.124;2023-05-07T13:40:56;11.73;;;3.30;;
47009;SDS011;59230;54.164;-3.124;2023-05-07T13:43:24;13.48;;;3.00;;
47009;SDS011;59230;54.164;-3.124;2023-05-07T13:45:51;7.93;;;2.65;;
47009;SDS011;59230;54.164;-3.124;2023-05-07T13:48:18;10.50;;;2.88;;
47009;SDS011;59230;54.164;-3.124;2023-05-07T13:50:43;10.70;;;2.95;;
47009;SDS011;59230;54.164;-3.124;2023-05-07T13:53:09;13.32;;;3.40;;
47009;SDS011;59230;54.164;-3.124;2023-05-07T13:55:35;8.63;;;3.45;;
47009;SDS011;59230;54.164;-3.124;2023-05-07T13:58:01;10.05;;;3.08;;
47009;SDS011;59230;54.164;-3.124;2023-05-07T14:00:29;9.82;;;2.90;;
47009;SDS011;59230;54.164;-3.124;2023-05-07T14:02:57;12.02;;;2.92;;
47009;SDS011;59230;54.164;-3.124;2023-05-07T14:05:23;12.15;;;3.08;;
47009;SDS011;59230;54.164;-3.124;2023-05-07T14:07:54;8.85;;;2.92;;
47009;SDS011;59230;54.164;-3.124;2023-05-07T14:10:21;6.70;;;2.60;;
47009;SDS011;59230;54.164;-3.124;2023-05-07T14:12:48;9.75;;;2.78;;
47009;SDS011;59230;54.164;-3.124;2023-05-07T14:15:13;8.48;;;3.00;;
47009;SDS011;59230;54.164;-3.124;2023-05-07T14:17:41;9.23;;;3.65;;
47009;SDS011;59230;54.164;-3.124;2023-05-07T14:20:13;9.65;;;3.13;;
47009;SDS011;59230;54.164;-3.124;2023-05-07T14:22:41;12.40;;;3.15;;
47009;SDS011;59230;54.164;-3.124;2023-05-07T14:25:09;8.30;;;2.58;;
47009;SDS011;59230;54.164;-3.124;2023-05-07T14:27:35;7.95;;;2.53;;
47009;SDS011;59230;54.164;-3.124;2023-05-07T14:30:01;11.07;;;2.70;;
47009;SDS011;59230;54.164;-3.124;2023-05-07T14:32:27;10.02;;;2.60;;
47009;SDS011;59230;54.164;-3.124;2023-05-07T14:34:52;8.65;;;2.40;;
47009;SDS011;59230;54.164;-3.124;2023-05-07T14:37:18;8.88;;;2.35;;
47009;SDS011;59230;54.164;-3.124;2023-05-07T14:39:47;6.97;;;2.30;;
47009;SDS011;59230;54.164;-3.124;2023-05-07T14:42:14;8.15;;;2.50;;
47009;SDS011;59230;54.164;-3.124;2023-05-07T14:44:42;9.05;;;2.05;;
47009;SDS011;59230;54.164;-3.124;2023-05-07T14:47:09;10.18;;;2.28;;
47009;SDS011;59230;54.164;-3.124;2023-05-07T14:49:36;11.32;;;2.50;;
47009;SDS011;59230;54.164;-3.124;2023-05-07T14:52:02;9.85;;;2.13;;
47009;SDS011;59230;54.164;-3.124;2023-05-07T14:54:29;6.75;;;2.15;;
47009;SDS011;59230;54.164;-3.124;2023-05-07T14:56:56;12.65;;;2.35;;